Terminal Aerodrome Forecast
Issued by NWS Wakefield, VA

Home | Current Version | Previous Version | Text Only | Print | Product List | Glossary On
Versions: 1 2 3 4 5 6 7 8 9 10 11 12 13 14 15 16 17 18
445
FTUS41 KAKQ 230300 AAA
TAFECG
TAF AMD
KECG 230300Z 2303/2324 09003KT P6SM SCT250
      TEMPO 2303/2306 00000KT 2SM MIFG
     FM231000 12003KT 4SM BR SCT025 SCT250
     FM231200 14008KT P6SM SCT040 BKN250
     FM231700 15012KT P6SM SCT040 BKN250=

USA.gov is the U.S. government's official web portal to all federal, state and local government web resources and services.